Time;durP1;ratioP1;P1;durP2;ratioP2;P2;SDS_P1;SDS_P2;PMS_P1;PMS_P2;Temp;Humidity;BMP_temperature;BMP_pressure;BME280_temperature;BME280_humidity;BME280_pressure;Samples;Min_cycle;Max_cycle;Signal;HPM_P1;HPM_P2
2022/02/23 00:00:56;;;;;;;17.02;3.38;;;;;;;4.08;100.00;100975.53;4916537;29;20051;-88
2022/02/23 00:03:22;;;;;;;12.82;2.63;;;;;;;4.02;100.00;100971.09;4893314;29;20050;-86
2022/02/23 00:05:49;;;;;;;11.90;2.78;;;;;;;4.02;100.00;100983.19;4898322;29;20043;-88
2022/02/23 00:08:15;;;;;;;16.45;4.25;;;;;;;4.04;100.00;100982.38;4931893;28;20063;-85
2022/02/23 00:10:42;;;;;;;16.85;4.13;;;;;;;4.07;100.00;100991.94;4907704;28;20056;-88
2022/02/23 00:13:08;;;;;;;12.77;2.67;;;;;;;4.09;100.00;100992.81;4916602;28;20092;-87
2022/02/23 00:15:35;;;;;;;11.45;2.83;;;;;;;4.07;100.00;100991.94;4914585;28;20490;-87
2022/02/23 00:18:01;;;;;;;15.02;3.50;;;;;;;4.02;100.00;100989.22;4906909;29;20146;-86
2022/02/23 00:20:28;;;;;;;17.98;3.75;;;;;;;4.04;100.00;101000.50;4917611;28;20060;-86
2022/02/23 00:22:55;;;;;;;12.43;3.20;;;;;;;4.05;100.00;100997.06;4915946;29;20058;-88
2022/02/23 00:25:22;;;;;;;9.13;3.40;;;;;;;4.03;100.00;101003.03;4893667;29;20130;-86
2022/02/23 00:27:48;;;;;;;14.02;2.72;;;;;;;4.01;100.00;101002.16;4915043;29;20040;-86
2022/02/23 00:30:15;;;;;;;14.52;3.38;;;;;;;3.97;100.00;101004.66;4925806;28;20048;-88
2022/02/23 00:32:41;;;;;;;14.18;3.22;;;;;;;3.98;100.00;101009.00;4903588;29;20047;-88
2022/02/23 00:35:08;;;;;;;16.20;2.63;;;;;;;3.96;100.00;101007.22;4935708;28;20498;-87
2022/02/23 00:37:35;;;;;;;19.02;3.70;;;;;;;3.95;100.00;101023.56;4916651;29;20458;-86
2022/02/23 00:40:02;;;;;;;19.25;4.03;;;;;;;3.92;100.00;101024.38;4922257;29;20035;-84
2022/02/23 00:42:28;;;;;;;19.38;3.17;;;;;;;3.90;100.00;101025.22;4914021;29;20056;-87
2022/02/23 00:44:55;;;;;;;18.00;3.35;;;;;;;3.87;100.00;101036.38;4910243;29;20110;-83
2022/02/23 00:47:21;;;;;;;14.75;3.20;;;;;;;3.89;100.00;101028.63;4914309;29;20069;-84
2022/02/23 00:49:48;;;;;;;12.43;2.83;;;;;;;3.92;100.00;101031.28;4891524;29;20058;-85
2022/02/23 00:52:15;;;;;;;11.00;4.25;;;;;;;3.94;100.00;101043.44;4927024;28;20059;-87
2022/02/23 00:54:41;;;;;;;18.45;2.75;;;;;;;3.92;100.00;101047.69;4913551;28;20058;-86
2022/02/23 00:57:08;;;;;;;17.73;4.65;;;;;;;3.92;100.00;101054.59;4927017;28;20050;-85
2022/02/23 00:59:34;;;;;;;18.25;4.05;;;;;;;4.01;100.00;101062.59;4912605;29;20769;-84
2022/02/23 01:02:01;;;;;;;23.65;3.83;;;;;;;4.13;100.00;101075.88;4929205;28;20052;-87
2022/02/23 01:04:28;;;;;;;31.13;5.68;;;;;;;4.19;100.00;101066.47;4905458;29;20169;-83
2022/02/23 01:06:54;;;;;;;21.35;4.45;;;;;;;4.23;100.00;101076.94;4898781;29;20048;-86
2022/02/23 01:09:21;;;;;;;16.13;2.75;;;;;;;4.34;100.00;101069.44;4919298;29;20438;-86
2022/02/23 01:11:47;;;;;;;19.00;2.58;;;;;;;4.43;100.00;101080.03;4929934;28;20483;-83
2022/02/23 01:14:14;;;;;;;13.38;3.53;;;;;;;4.48;100.00;101074.91;4912360;29;20047;-87
2022/02/23 01:16:41;;;;;;;24.50;5.70;;;;;;;4.51;100.00;101092.25;4927700;28;20051;-87
2022/02/23 01:19:18;;;;;;;13.27;2.88;;;;;;;4.54;100.00;101081.97;4915079;29;20438;-85
2022/02/23 01:21:44;;;;;;;12.00;3.22;;;;;;;4.62;99.65;101088.22;4930265;28;20058;-86
2022/02/23 01:24:11;;;;;;;15.50;4.07;;;;;;;4.66;99.19;101102.13;4909473;29;20052;-86
2022/02/23 01:26:37;;;;;;;8.75;2.63;;;;;;;4.71;99.11;101090.13;4931636;28;20052;-87
2022/02/23 01:29:21;;;;;;;15.57;2.97;;;;;;;4.72;98.05;101094.47;4900816;29;20047;-85
2022/02/23 01:31:48;;;;;;;14.55;3.22;;;;;;;4.68;98.64;101105.63;4936366;28;20060;-83
2022/02/23 01:34:14;;;;;;;13.00;2.45;;;;;;;4.62;99.16;101102.03;4920300;29;20060;-84
2022/02/23 01:36:41;;;;;;;15.57;2.85;;;;;;;4.62;99.90;101109.81;4900107;29;20450;-86
2022/02/23 01:39:10;;;;;;;13.68;3.90;;;;;;;4.64;99.43;101108.16;4920077;28;20101;-87
2022/02/23 01:41:38;;;;;;;23.65;3.28;;;;;;;4.62;99.13;101114.13;4919255;28;20044;-88
2022/02/23 01:44:05;;;;;;;19.73;3.42;;;;;;;4.53;99.30;101119.97;4921582;28;20478;-86
2022/02/23 01:46:39;;;;;;;12.93;2.45;;;;;;;4.41;99.87;101119.72;4907878;28;20062;-85
2022/02/23 01:49:06;;;;;;;18.95;3.20;;;;;;;4.34;100.00;101123.88;4926815;28;20051;-84
2022/02/23 01:51:33;;;;;;;15.43;2.67;;;;;;;4.39;100.00;101127.41;4926767;28;20051;-86
2022/02/23 01:54:04;;;;;;;18.75;2.65;;;;;;;4.43;100.00;101133.56;4945474;28;20058;-85
2022/02/23 01:56:39;;;;;;;15.73;2.75;;;;;;;4.42;100.00;101136.97;4940281;28;20046;-87
2022/02/23 01:59:09;;;;;;;16.13;2.22;;;;;;;4.37;100.00;101142.06;4947628;28;20051;-87
2022/02/23 02:01:41;;;;;;;17.85;3.67;;;;;;;4.33;100.00;101141.94;4928882;28;21939;-85
2022/02/23 02:04:21;;;;;;;12.77;2.60;;;;;;;4.40;100.00;101157.69;4939275;28;20051;-86
2022/02/23 02:06:51;;;;;;;10.45;2.70;;;;;;;4.50;99.31;101151.03;4920760;28;20078;-87
2022/02/23 02:09:19;;;;;;;12.25;2.75;;;;;;;4.48;98.66;101152.69;4922087;28;20051;-85
2022/02/23 02:11:46;;;;;;;18.25;3.30;;;;;;;4.43;99.28;101168.16;4927884;28;20051;-87
2022/02/23 02:14:12;;;;;;;16.50;2.88;;;;;;;4.40;99.63;101170.66;4932191;28;20137;-86
2022/02/23 02:16:39;;;;;;;10.00;3.08;;;;;;;4.43;99.97;101169.84;4899689;28;20047;-86
2022/02/23 02:19:06;;;;;;;12.82;2.15;;;;;;;4.44;99.77;101172.47;4918428;28;20051;-86
2022/02/23 02:21:58;;;;;;;18.48;3.22;;;;;;;4.45;99.57;101173.38;4919910;28;20058;-87
2022/02/23 02:24:31;;;;;;;13.63;3.28;;;;;;;4.40;99.78;101183.63;4896497;28;20066;-83
2022/02/23 02:26:59;;;;;;;18.05;3.28;;;;;;;4.30;100.00;101182.53;4936482;28;20106;-84
2022/02/23 02:29:27;;;;;;;16.30;2.90;;;;;;;4.26;100.00;101190.16;4934395;28;20405;-86
2022/02/23 02:31:54;;;;;;;16.02;3.58;;;;;;;4.28;100.00;101186.78;4911216;28;20047;-87
2022/02/23 02:34:21;;;;;;;13.98;3.38;;;;;;;4.35;100.00;101197.31;4932361;28;20083;-87
2022/02/23 02:36:49;;;;;;;16.15;2.38;;;;;;;4.35;100.00;101197.31;4897278;28;20050;-85
2022/02/23 02:39:18;;;;;;;16.58;2.50;;;;;;;4.30;100.00;101207.53;4916749;28;20067;-85
2022/02/23 02:41:45;;;;;;;17.20;2.67;;;;;;;4.23;100.00;101203.94;4917837;28;20043;-87
2022/02/23 02:44:12;;;;;;;13.43;2.40;;;;;;;4.17;100.00;101206.34;4915004;28;20173;-86
2022/02/23 02:46:39;;;;;;;16.30;3.08;;;;;;;4.14;100.00;101214.91;4936802;28;20055;-84
2022/02/23 02:49:06;;;;;;;8.90;3.63;;;;;;;4.08;100.00;101226.84;4923678;28;20047;-87
2022/02/23 02:51:33;;;;;;;11.95;2.58;;;;;;;4.10;100.00;101230.34;4902822;28;20050;-87
2022/02/23 02:53:59;;;;;;;14.13;2.63;;;;;;;4.08;100.00;101235.50;4920534;28;21044;-86
2022/02/23 02:56:27;;;;;;;14.55;2.58;;;;;;;3.97;100.00;101230.00;4930882;28;20139;-85
2022/02/23 02:58:54;;;;;;;17.13;2.95;;;;;;;3.89;100.00;101238.44;4924290;28;20051;-84
2022/02/23 03:01:23;;;;;;;16.17;2.58;;;;;;;3.84;100.00;101243.47;4925036;28;20556;-84
2022/02/23 03:03:51;;;;;;;16.20;3.25;;;;;;;3.77;100.00;101241.56;4916477;28;20078;-83
2022/02/23 03:06:19;;;;;;;14.38;3.72;;;;;;;3.72;100.00;101241.41;4908695;28;20552;-87
2022/02/23 03:08:47;;;;;;;11.68;2.20;;;;;;;3.73;100.00;101256.13;4909577;28;20378;-82
2022/02/23 03:11:14;;;;;;;16.08;3.15;;;;;;;3.81;100.00;101252.03;4912653;28;20043;-86
2022/02/23 03:13:42;;;;;;;11.73;2.53;;;;;;;3.90;100.00;101269.56;4922440;28;20056;-87
2022/02/23 03:16:10;;;;;;;20.15;3.65;;;;;;;4.00;100.00;101272.38;4941245;28;20728;-82
2022/02/23 03:18:37;;;;;;;16.98;2.78;;;;;;;4.07;100.00;101282.97;4909979;28;20051;-84
2022/02/23 03:21:04;;;;;;;8.73;1.92;;;;;;;4.00;100.00;101278.44;4926748;28;20116;-82
2022/02/23 03:23:32;;;;;;;14.38;4.55;;;;;;;3.93;100.00;101282.56;4918652;28;20055;-86
2022/02/23 03:25:58;;;;;;;11.93;2.78;;;;;;;3.85;100.00;101281.50;4923616;28;20368;-87
2022/02/23 03:28:26;;;;;;;15.80;3.28;;;;;;;3.81;100.00;101282.25;4929330;28;20540;-86
2022/02/23 03:30:52;;;;;;;13.35;2.22;;;;;;;3.79;100.00;101284.78;4906918;28;20139;-86
2022/02/23 03:33:19;;;;;;;13.38;3.58;;;;;;;3.74;100.00;101293.25;4921171;28;20066;-85
2022/02/23 03:35:47;;;;;;;9.00;2.25;;;;;;;3.67;100.00;101296.50;4925593;28;20483;-87
2022/02/23 03:38:15;;;;;;;15.80;3.40;;;;;;;3.56;100.00;101296.16;4919411;28;20047;-86
2022/02/23 03:40:43;;;;;;;10.32;3.03;;;;;;;3.46;100.00;101297.59;4922033;28;20061;-84
2022/02/23 03:43:10;;;;;;;10.00;2.35;;;;;;;3.38;100.00;101309.44;4932559;28;20138;-87
2022/02/23 03:45:37;;;;;;;21.20;4.78;;;;;;;3.34;100.00;101304.97;4906490;28;20054;-85
2022/02/23 03:48:04;;;;;;;17.73;2.97;;;;;;;3.28;100.00;101309.13;4923653;28;20137;-82
2022/02/23 03:50:31;;;;;;;17.70;2.30;;;;;;;3.23;100.00;101318.44;4915212;28;20050;-85
2022/02/23 03:52:57;;;;;;;12.98;2.20;;;;;;;3.25;100.00;101321.09;4918652;28;20051;-84
2022/02/23 03:55:24;;;;;;;26.38;2.75;;;;;;;3.25;100.00;101315.94;4922763;28;20054;-86
2022/02/23 03:57:50;;;;;;;9.32;1.90;;;;;;;3.23;100.00;101322.75;4919391;28;20305;-85
2022/02/23 04:00:17;;;;;;;21.88;4.30;;;;;;;3.23;100.00;101320.16;4907820;28;20392;-86
2022/02/23 04:02:45;;;;;;;18.95;3.78;;;;;;;3.22;100.00;101333.94;4922045;28;20058;-83
2022/02/23 04:05:12;;;;;;;13.90;3.35;;;;;;;3.19;100.00;101341.59;4917107;28;20134;-86
2022/02/23 04:07:39;;;;;;;15.52;4.35;;;;;;;3.20;100.00;101351.13;4922561;28;20164;-84
2022/02/23 04:10:07;;;;;;;13.27;2.42;;;;;;;3.16;100.00;101355.31;4932856;28;20053;-86
2022/02/23 04:12:36;;;;;;;15.13;2.28;;;;;;;3.16;100.00;101365.66;4921056;28;20059;-85
2022/02/23 04:15:02;;;;;;;16.58;3.13;;;;;;;3.15;100.00;101369.06;4922679;28;20063;-87
2022/02/23 04:17:29;;;;;;;14.30;2.03;;;;;;;3.16;100.00;101367.38;4936628;28;20429;-86
2022/02/23 04:19:55;;;;;;;13.90;3.85;;;;;;;3.16;100.00;101377.75;4921971;28;20103;-87
2022/02/23 04:22:22;;;;;;;10.32;2.17;;;;;;;3.14;100.00;101383.72;4905883;28;20047;-85
2022/02/23 04:24:49;;;;;;;10.93;2.20;;;;;;;3.13;100.00;101391.44;4918695;28;20062;-84
2022/02/23 04:27:15;;;;;;;13.82;3.20;;;;;;;3.08;100.00;101404.22;4908026;28;20083;-87
2022/02/23 04:29:42;;;;;;;5.32;3.55;;;;;;;3.01;100.00;101403.94;4903095;28;21062;-87
2022/02/23 04:32:08;;;;;;;21.55;2.63;;;;;;;2.99;100.00;101406.50;4940293;28;20059;-82
2022/02/23 04:34:35;;;;;;;8.98;2.40;;;;;;;3.00;100.00;101410.84;4941417;28;20043;-87
2022/02/23 04:37:01;;;;;;;13.23;4.07;;;;;;;3.00;100.00;101399.59;4930640;28;20047;-84
2022/02/23 04:39:29;;;;;;;18.98;3.10;;;;;;;3.03;100.00;101408.34;4921271;28;20092;-85
2022/02/23 04:41:56;;;;;;;11.68;3.05;;;;;;;3.01;100.00;101416.88;4919955;28;20071;-85
2022/02/23 04:44:22;;;;;;;9.88;2.03;;;;;;;3.01;100.00;101419.47;4932871;28;20047;-83
2022/02/23 04:46:49;;;;;;;15.95;4.40;;;;;;;3.02;100.00;101424.69;4907236;28;21630;-87
2022/02/23 04:49:15;;;;;;;21.58;3.45;;;;;;;3.04;100.00;101420.47;4939185;28;20051;-85
2022/02/23 04:51:42;;;;;;;14.27;2.63;;;;;;;3.06;100.00;101420.50;4934564;28;20063;-83
2022/02/23 04:54:08;;;;;;;16.70;3.35;;;;;;;3.05;100.00;101429.09;4924989;28;20055;-86
2022/02/23 04:56:35;;;;;;;18.63;2.58;;;;;;;3.07;100.00;101433.50;4919341;28;20529;-84
2022/02/23 04:59:01;;;;;;;11.30;2.63;;;;;;;3.02;100.00;101429.00;4940976;28;20059;-85
2022/02/23 05:01:28;;;;;;;5.07;2.53;;;;;;;3.00;100.00;101444.47;4907897;28;20051;-87
2022/02/23 05:03:55;;;;;;;13.27;4.00;;;;;;;3.05;100.00;101449.78;4916198;28;20049;-85
2022/02/23 05:06:21;;;;;;;9.73;3.25;;;;;;;3.07;100.00;101450.72;4904919;28;20051;-87
2022/02/23 05:08:48;;;;;;;7.68;2.63;;;;;;;3.08;100.00;101457.69;4938939;28;20051;-85
2022/02/23 05:11:14;;;;;;;13.75;3.15;;;;;;;3.03;100.00;101454.03;4902676;28;20504;-83
2022/02/23 05:13:41;;;;;;;15.25;4.20;;;;;;;3.01;100.00;101460.84;4922500;28;20066;-83
2022/02/23 05:16:07;;;;;;;10.45;2.20;;;;;;;3.00;100.00;101465.16;4920322;28;20110;-84
2022/02/23 05:18:34;;;;;;;14.20;3.35;;;;;;;2.98;100.00;101475.44;4900475;28;20047;-87
2022/02/23 05:21:01;;;;;;;12.48;2.67;;;;;;;2.96;100.00;101471.06;4923075;28;20497;-84
2022/02/23 05:23:29;;;;;;;25.73;6.40;;;;;;;2.93;100.00;101482.19;4936314;28;20062;-84
2022/02/23 05:25:56;;;;;;;12.00;2.97;;;;;;;2.93;100.00;101479.59;4933365;28;20047;-85
2022/02/23 05:28:24;;;;;;;9.73;3.00;;;;;;;2.94;100.00;101486.50;4904265;28;20051;-86
2022/02/23 05:30:50;;;;;;;22.98;4.13;;;;;;;2.96;100.00;101492.63;4920760;28;20058;-86
2022/02/23 05:33:17;;;;;;;23.92;4.30;;;;;;;3.05;100.00;101493.75;4921548;28;20039;-86
2022/02/23 05:35:45;;;;;;;8.18;4.25;;;;;;;3.10;100.00;101493.13;4924118;28;20062;-82
2022/02/23 05:38:11;;;;;;;9.38;2.95;;;;;;;3.09;100.00;101500.78;4899966;28;20166;-83
2022/02/23 05:40:38;;;;;;;25.63;5.60;;;;;;;3.05;100.00;101502.41;4922083;28;20054;-87
2022/02/23 05:43:04;;;;;;;12.90;3.47;;;;;;;3.02;100.00;101509.19;4911058;29;20335;-84
2022/02/23 05:45:31;;;;;;;18.17;4.28;;;;;;;3.05;100.00;101515.34;4928497;28;20048;-87
2022/02/23 05:48:00;;;;;;;14.13;3.90;;;;;;;3.09;100.00;101516.31;4929085;28;20058;-87
2022/02/23 05:50:27;;;;;;;14.88;2.97;;;;;;;3.10;100.00;101524.16;4906040;29;20063;-83
2022/02/23 05:52:53;;;;;;;15.52;4.25;;;;;;;3.11;100.00;101517.28;4913320;29;20110;-84
2022/02/23 05:55:20;;;;;;;11.07;3.10;;;;;;;3.14;100.00;101530.31;4912422;29;20395;-87
2022/02/23 05:57:46;;;;;;;11.63;2.72;;;;;;;3.13;100.00;101534.59;4921276;28;20486;-85
2022/02/23 06:00:14;;;;;;;16.50;2.78;;;;;;;3.15;100.00;101524.31;4928881;28;20058;-86
2022/02/23 06:02:41;;;;;;;16.75;3.20;;;;;;;3.16;100.00;101535.56;4927756;28;20063;-86
2022/02/23 06:05:09;;;;;;;17.30;4.00;;;;;;;3.18;100.00;101529.63;4913549;29;20047;-85
2022/02/23 06:07:35;;;;;;;11.85;2.97;;;;;;;3.19;100.00;101543.41;4932439;28;20039;-85
2022/02/23 06:10:05;;;;;;;14.35;3.00;;;;;;;3.17;100.00;101548.53;4928970;28;20063;-84
2022/02/23 06:12:31;;;;;;;19.58;2.92;;;;;;;3.16;100.00;101544.19;4914022;29;20129;-83
2022/02/23 06:14:58;;;;;;;29.52;4.55;;;;;;;3.14;100.00;101544.13;4930535;28;20055;-86
2022/02/23 06:17:25;;;;;;;18.77;4.28;;;;;;;3.14;100.00;101548.41;4925106;28;20043;-86
2022/02/23 06:19:52;;;;;;;19.02;2.92;;;;;;;3.14;100.00;101556.16;4915199;29;20047;-86
2022/02/23 06:22:18;;;;;;;20.33;3.00;;;;;;;3.12;100.00;101558.72;4913470;29;20056;-82
2022/02/23 06:24:45;;;;;;;12.70;2.63;;;;;;;3.13;100.00;101557.03;4936010;28;20115;-83
2022/02/23 06:27:13;;;;;;;14.88;4.10;;;;;;;3.12;100.00;101557.84;4933038;28;20043;-86
2022/02/23 06:29:41;;;;;;;19.15;3.42;;;;;;;3.18;100.00;101559.75;4927842;28;20055;-84
2022/02/23 06:32:09;;;;;;;18.60;3.53;;;;;;;3.18;100.00;101560.66;4914940;29;20047;-86
2022/02/23 06:34:37;;;;;;;13.05;3.13;;;;;;;3.16;100.00;101569.19;4932008;28;20062;-85
2022/02/23 06:37:06;;;;;;;18.80;2.67;;;;;;;3.19;100.00;101559.81;4892319;29;20059;-86
2022/02/23 06:39:36;;;;;;;12.32;2.60;;;;;;;3.23;100.00;101569.44;4896667;29;20063;-86
2022/02/23 06:42:04;;;;;;;12.93;3.13;;;;;;;3.19;100.00;101580.50;4915129;28;20693;-85
2022/02/23 06:44:32;;;;;;;20.85;3.38;;;;;;;3.17;100.00;101591.63;4928084;28;20055;-86
2022/02/23 06:46:59;;;;;;;15.90;3.90;;;;;;;3.13;100.00;101588.06;4916354;29;20062;-85
2022/02/23 06:49:27;;;;;;;21.83;4.13;;;;;;;3.09;100.00;101605.19;4891024;29;20139;-83
2022/02/23 06:51:58;;;;;;;15.95;3.03;;;;;;;3.12;100.00;101596.66;4902387;29;20167;-85
2022/02/23 06:54:26;;;;;;;10.98;3.33;;;;;;;3.17;100.00;101604.56;4891723;29;20055;-84
2022/02/23 06:56:53;;;;;;;19.85;2.72;;;;;;;3.26;100.00;101610.97;4883168;28;20054;-84
2022/02/23 06:59:20;;;;;;;19.52;3.63;;;;;;;3.29;100.00;101615.38;4914622;28;21596;-86
2022/02/23 07:01:46;;;;;;;18.73;3.25;;;;;;;3.29;100.00;101618.84;4928214;28;20331;-86
2022/02/23 07:04:13;;;;;;;16.20;5.60;;;;;;;3.32;100.00;101623.25;4891402;29;20665;-85
2022/02/23 07:06:42;;;;;;;23.23;4.15;;;;;;;3.37;100.00;101628.59;4912448;29;20424;-86
2022/02/23 07:09:09;;;;;;;30.70;4.60;;;;;;;3.41;100.00;101633.06;4892722;29;20478;-84
2022/02/23 07:11:38;;;;;;;7.63;2.22;;;;;;;3.43;100.00;101637.47;4912479;29;20053;-85
2022/02/23 07:14:06;;;;;;;17.48;3.58;;;;;;;3.46;100.00;101632.38;4910155;29;20135;-87
2022/02/23 07:16:32;;;;;;;15.27;4.15;;;;;;;3.48;100.00;101637.59;4922401;28;20115;-86
2022/02/23 07:18:59;;;;;;;21.58;4.55;;;;;;;3.49;100.00;101641.97;4909905;29;20051;-85
2022/02/23 07:21:25;;;;;;;16.88;3.03;;;;;;;3.62;100.00;101643.28;4896312;29;20211;-84
2022/02/23 07:23:52;;;;;;;23.83;5.32;;;;;;;3.73;100.00;101641.06;4890570;29;20059;-84
2022/02/23 07:26:19;;;;;;;18.25;3.45;;;;;;;3.77;100.00;101649.00;4894014;29;20448;-83
2022/02/23 07:28:45;;;;;;;18.20;3.40;;;;;;;3.81;100.00;101650.88;4929507;28;20480;-86
2022/02/23 07:31:17;;;;;;;12.48;3.38;;;;;;;3.81;100.00;101655.19;4920636;28;20052;-84
2022/02/23 07:33:45;;;;;;;13.80;3.42;;;;;;;3.89;100.00;101635.59;4900445;29;20051;-85
2022/02/23 07:36:12;;;;;;;19.85;3.08;;;;;;;3.98;99.44;101654.06;4912609;29;20487;-85
2022/02/23 07:38:40;;;;;;;17.75;3.60;;;;;;;4.16;99.05;101660.69;4916393;29;20059;-85
2022/02/23 07:41:10;;;;;;;17.80;6.00;;;;;;;4.22;98.05;101657.41;4914141;29;20086;-85
2022/02/23 07:43:37;;;;;;;14.93;4.32;;;;;;;4.21;98.17;101666.91;4898035;28;20507;-86
2022/02/23 07:46:05;;;;;;;12.50;3.60;;;;;;;4.23;98.14;101666.97;4933458;28;20162;-84
2022/02/23 07:48:32;;;;;;;16.85;3.92;;;;;;;4.24;97.36;101667.00;4919349;28;20051;-86
2022/02/23 07:50:59;;;;;;;14.55;3.30;;;;;;;4.24;97.86;101671.31;4912991;28;20062;-85
2022/02/23 07:53:26;;;;;;;16.42;3.17;;;;;;;4.33;97.39;101681.09;4920237;28;20050;-84
2022/02/23 07:55:53;;;;;;;17.52;3.83;;;;;;;4.39;96.45;101665.75;4913561;28;20049;-84
2022/02/23 07:58:19;;;;;;;13.35;3.03;;;;;;;4.44;96.20;101675.44;4917523;28;20098;-84
2022/02/23 08:00:46;;;;;;;10.77;2.63;;;;;;;4.46;95.89;101681.56;4937544;28;20059;-82
2022/02/23 08:03:12;;;;;;;18.48;4.28;;;;;;;4.46;96.35;101691.94;4932188;28;20129;-86
2022/02/23 08:05:39;;;;;;;19.67;3.53;;;;;;;4.43;96.65;101685.75;4938178;28;20073;-86
2022/02/23 08:08:06;;;;;;;17.85;2.85;;;;;;;4.42;96.93;101681.41;4923478;28;20493;-84
2022/02/23 08:10:32;;;;;;;11.88;3.22;;;;;;;4.50;96.84;101686.84;4931911;28;20457;-84
2022/02/23 08:12:59;;;;;;;9.48;2.78;;;;;;;4.61;95.90;101691.53;4921543;28;20059;-85
2022/02/23 08:20:56;;;;;;;16.23;3.42;;;;;;;4.75;94.45;101699.75;4919293;28;20039;-84
2022/02/23 08:23:23;;;;;;;14.70;4.15;;;;;;;4.91;94.11;101689.88;4912021;28;20062;-85
2022/02/23 08:25:50;;;;;;;19.70;4.03;;;;;;;5.06;93.01;101694.66;4902150;28;20098;-85
2022/02/23 08:28:16;;;;;;;21.55;3.58;;;;;;;5.07;91.75;101686.03;4936984;28;20043;-85
2022/02/23 08:30:43;;;;;;;12.60;3.13;;;;;;;5.12;92.42;101694.84;4930163;28;20047;-84
2022/02/23 08:33:10;;;;;;;18.67;3.22;;;;;;;5.05;92.10;101692.91;4903220;28;20062;-87
2022/02/23 08:35:36;;;;;;;14.13;3.80;;;;;;;5.08;92.70;101698.19;4916571;28;20057;-84
2022/02/23 08:38:03;;;;;;;9.00;2.80;;;;;;;5.12;91.78;101700.03;4905070;28;20047;-85
2022/02/23 08:40:29;;;;;;;22.70;4.63;;;;;;;5.11;91.80;101699.16;4918758;28;20415;-86
2022/02/23 08:42:56;;;;;;;15.98;3.22;;;;;;;5.04;92.18;101702.38;4909415;28;20063;-84
2022/02/23 08:45:23;;;;;;;11.52;3.65;;;;;;;5.08;91.91;101714.63;4928835;28;20418;-85
2022/02/23 08:47:49;;;;;;;13.93;5.13;;;;;;;5.05;92.44;101703.28;4898218;29;20055;-86
2022/02/23 08:50:16;;;;;;;15.57;2.40;;;;;;;5.07;91.59;101709.38;4925612;28;20055;-86
2022/02/23 08:52:42;;;;;;;21.48;3.90;;;;;;;5.05;92.05;101714.53;4928308;28;20051;-86
2022/02/23 08:55:09;;;;;;;17.58;3.13;;;;;;;5.11;91.86;101713.84;4909251;29;20044;-85
2022/02/23 08:57:36;;;;;;;15.32;3.17;;;;;;;5.18;90.16;101708.00;4914025;28;20060;-86
2022/02/23 09:00:05;;;;;;;15.30;2.75;;;;;;;5.17;90.15;101705.38;4912601;28;20056;-87
2022/02/23 09:02:32;;;;;;;7.75;3.00;;;;;;;5.22;89.88;101712.44;4906848;29;20068;-85
2022/02/23 09:04:58;;;;;;;11.85;2.97;;;;;;;5.26;89.18;101714.31;4915985;29;20259;-88
2022/02/23 09:07:25;;;;;;;14.77;3.55;;;;;;;5.33;88.32;101717.97;4930811;28;20166;-86
2022/02/23 09:09:52;;;;;;;16.30;3.85;;;;;;;5.37;87.63;101714.66;4912056;29;20092;-86
2022/02/23 09:12:19;;;;;;;9.95;2.47;;;;;;;5.37;87.37;101726.72;4917173;29;20044;-85
2022/02/23 09:14:46;;;;;;;12.02;3.42;;;;;;;5.40;87.85;101724.25;4903526;29;20044;-86
2022/02/23 09:17:13;;;;;;;17.80;3.67;;;;;;;5.41;88.31;101731.16;4894999;29;20889;-86
2022/02/23 09:19:39;;;;;;;14.05;2.85;;;;;;;5.47;86.94;101718.38;4914532;29;20054;-87
2022/02/23 09:22:06;;;;;;;14.43;2.78;;;;;;;5.50;85.71;101712.38;4895656;29;20606;-86
2022/02/23 09:24:33;;;;;;;17.27;3.50;;;;;;;5.51;85.42;101722.81;4926244;28;20048;-85
2022/02/23 09:27:01;;;;;;;18.48;4.25;;;;;;;5.55;85.79;101726.38;4929552;28;20069;-87
2022/02/23 09:29:31;;;;;;;12.60;3.67;;;;;;;5.61;84.49;101732.63;4920249;28;20047;-86
2022/02/23 09:31:58;;;;;;;13.70;2.78;;;;;;;5.67;84.33;101733.66;4912532;29;20058;-86
2022/02/23 09:34:24;;;;;;;12.98;3.03;;;;;;;5.69;83.89;101732.84;4912356;29;20110;-86
2022/02/23 09:36:52;;;;;;;21.52;4.00;;;;;;;5.66;84.87;101732.78;4909095;28;20941;-85
2022/02/23 09:39:19;;;;;;;13.27;3.33;;;;;;;5.74;84.82;101730.41;4929847;28;20053;-87
2022/02/23 09:41:47;;;;;;;13.45;3.60;;;;;;;5.82;83.97;101726.28;4893478;29;20065;-87
2022/02/23 09:44:19;;;;;;;15.32;3.35;;;;;;;5.90;82.97;101731.72;4913268;28;20051;-86
2022/02/23 09:46:47;;;;;;;14.33;2.97;;;;;;;5.96;82.49;101735.34;4916161;28;20969;-84
2022/02/23 09:49:14;;;;;;;8.60;2.03;;;;;;;6.10;80.20;101734.88;4907485;28;20070;-84
2022/02/23 09:51:41;;;;;;;15.23;2.65;;;;;;;6.15;79.84;101728.06;4893283;28;20062;-87
2022/02/23 09:54:08;;;;;;;12.35;3.65;;;;;;;6.14;80.17;101731.53;4929686;28;20059;-87
2022/02/23 09:56:35;;;;;;;16.35;4.45;;;;;;;6.20;80.20;101720.41;4907732;28;20039;-86
2022/02/23 09:59:02;;;;;;;12.18;3.28;;;;;;;6.31;79.41;101728.47;4931656;28;20406;-86
2022/02/23 10:01:30;;;;;;;7.47;2.95;;;;;;;6.35;79.23;101739.03;4908895;28;20051;-85
2022/02/23 10:03:56;;;;;;;13.60;2.60;;;;;;;6.44;78.50;101733.16;4895659;28;20055;-84
2022/02/23 10:06:30;;;;;;;14.23;2.90;;;;;;;6.50;79.11;101740.25;4912988;28;20618;-84
2022/02/23 10:09:13;;;;;;;15.52;3.30;;;;;;;6.61;78.56;101733.59;4910726;28;20657;-85
2022/02/23 10:11:44;;;;;;;13.65;3.47;;;;;;;6.72;77.85;101739.06;4930890;28;20043;-85
2022/02/23 10:14:12;;;;;;;12.45;3.08;;;;;;;6.80;77.83;101750.53;4916800;28;20051;-84
2022/02/23 10:16:47;;;;;;;11.30;2.95;;;;;;;6.86;77.12;101747.22;4911614;28;20054;-84
2022/02/23 10:19:22;;;;;;;8.82;2.53;;;;;;;6.83;76.56;101735.00;4900881;28;20834;-84
2022/02/23 10:22:00;;;;;;;12.25;2.83;;;;;;;6.88;76.33;101748.09;4927454;28;21435;-85
2022/02/23 10:24:34;;;;;;;6.85;1.63;;;;;;;6.90;76.01;101741.22;4931215;28;20055;-84
2022/02/23 10:27:13;;;;;;;6.13;2.00;;;;;;;6.86;76.77;101750.69;4930166;28;20054;-83
2022/02/23 10:29:52;;;;;;;10.35;2.30;;;;;;;6.91;76.78;101745.56;4923570;28;20070;-84
2022/02/23 10:32:19;;;;;;;10.40;2.83;;;;;;;7.08;74.34;101749.47;4896980;28;20047;-83
2022/02/23 10:34:52;;;;;;;9.75;3.47;;;;;;;7.18;73.69;101747.06;4926101;28;20047;-84
2022/02/23 10:37:22;;;;;;;9.77;2.10;;;;;;;7.21;74.03;101745.41;4930292;28;20062;-83
2022/02/23 10:39:50;;;;;;;6.93;2.20;;;;;;;7.25;73.57;101751.59;4870333;28;20930;-87
2022/02/23 10:42:24;;;;;;;14.35;2.10;;;;;;;7.26;72.42;101754.22;4902200;28;20059;-85
2022/02/23 10:44:55;;;;;;;7.20;2.20;;;;;;;7.27;73.24;101760.28;4913888;28;20911;-85
2022/02/23 10:47:37;;;;;;;10.13;3.33;;;;;;;7.37;72.76;101756.19;4905281;28;20052;-86
2022/02/23 10:50:23;;;;;;;9.60;2.58;;;;;;;7.40;71.80;101751.88;4914327;28;20779;-85
2022/02/23 10:52:59;;;;;;;8.63;1.63;;;;;;;7.45;70.83;101755.47;4913925;28;20122;-85
2022/02/23 10:55:31;;;;;;;9.75;2.88;;;;;;;7.51;70.40;101751.25;4907265;28;20048;-85
2022/02/23 10:58:01;;;;;;;11.00;3.40;;;;;;;7.45;71.17;101752.88;4913068;28;20186;-85
2022/02/23 11:00:35;;;;;;;8.10;1.92;;;;;;;7.49;71.35;101760.78;4925108;28;20051;-87
2022/02/23 11:03:06;;;;;;;15.05;2.13;;;;;;;7.53;71.41;101746.97;4930933;28;20134;-85
2022/02/23 11:05:33;;;;;;;6.90;2.00;;;;;;;7.65;68.27;101743.72;4935315;28;20333;-86
2022/02/23 11:08:04;;;;;;;14.93;3.65;;;;;;;7.77;67.53;101755.28;4912793;28;20093;-85
2022/02/23 11:10:32;;;;;;;7.65;1.50;;;;;;;7.90;66.31;101742.47;4924024;28;20043;-86
2022/02/23 11:13:00;;;;;;;5.30;1.58;;;;;;;7.94;66.38;101750.41;4920612;28;20078;-84
2022/02/23 11:15:30;;;;;;;4.10;1.33;;;;;;;7.95;65.76;101752.19;4915593;28;20114;-84
2022/02/23 11:17:57;;;;;;;9.85;2.30;;;;;;;7.92;66.67;101753.84;4932788;28;20059;-85
2022/02/23 11:20:31;;;;;;;9.68;1.55;;;;;;;7.93;67.14;101750.38;4921645;28;20062;-86
2022/02/23 11:23:02;;;;;;;2.60;1.05;;;;;;;8.06;66.03;101751.50;4931310;28;20055;-84
2022/02/23 11:25:35;;;;;;;7.40;1.63;;;;;;;8.19;65.29;101758.69;4917389;28;20608;-86
2022/02/23 11:28:45;;;;;;;8.18;2.35;;;;;;;8.21;64.34;101758.72;4893423;28;20095;-86
2022/02/23 11:31:15;;;;;;;6.70;1.73;;;;;;;8.22;63.47;101755.28;4875184;28;20048;-86